Time;durP1;ratioP1;P1;durP2;ratioP2;P2;SDS_P1;SDS_P2;PMS_P1;PMS_P2;Temp;Humidity;BMP_temperature;BMP_pressure;BME280_temperature;BME280_humidity;BME280_pressure;Samples;Min_cycle;Max_cycle;Signal;HPM_P1;HPM_P2
2023/04/05 00:02:04;;;;;;;;;;;;;;;1.20;90.78;92753.41;5070932;28;20034;-39
2023/04/05 00:04:33;;;;;;;;;;;;;;;1.13;91.43;92747.78;5070844;28;19973;-39
2023/04/05 00:07:01;;;;;;;;;;;;;;;1.14;91.47;92751.97;5070934;28;19940;-39
2023/04/05 00:09:27;;;;;;;;;;;;;;;1.08;91.28;92737.69;5071038;28;19931;-39
2023/04/05 00:11:52;;;;;;;;;;;;;;;0.97;91.02;92738.50;5071062;28;19936;-39
2023/04/05 00:14:18;;;;;;;;;;;;;;;1.10;90.51;92740.63;5070939;28;19935;-39
2023/04/05 00:16:43;;;;;;;;;;;;;;;0.91;91.94;92728.91;5070617;28;19930;-39
2023/04/05 00:19:11;;;;;;;;;;;;;;;1.00;91.66;92740.19;5069232;28;19941;-39
2023/04/05 00:21:38;;;;;;;;;;;;;;;0.87;92.11;92739.31;5070506;28;19974;-39
2023/04/05 00:24:04;;;;;;;;;;;;;;;0.94;91.10;92744.94;5070670;28;20366;-39
2023/04/05 00:26:29;;;;;;;;;;;;;;;1.05;91.19;92736.72;5070756;28;19999;-39
2023/04/05 00:28:54;;;;;;;;;;;;;;;0.95;92.20;92735.56;5069819;28;20563;-39
2023/04/05 00:31:20;;;;;;;;;;;;;;;1.00;91.41;92737.47;5070060;28;20009;-39
2023/04/05 00:33:45;;;;;;;;;;;;;;;1.03;90.70;92741.91;5076416;28;19934;-39
2023/04/05 00:36:11;;;;;;;;;;;;;;;1.04;91.30;92737.94;5090713;28;19930;-39
2023/04/05 00:38:36;;;;;;;;;;;;;;;1.09;90.73;92744.59;5090808;28;19968;-39
2023/04/05 00:41:01;;;;;;;;;;;;;;;1.14;90.46;92747.28;5090790;28;20434;-39
2023/04/05 00:43:27;;;;;;;;;;;;;;;1.15;91.18;92754.19;5090336;28;19946;-39
2023/04/05 00:45:52;;;;;;;;;;;;;;;1.19;90.54;92751.22;5090672;28;19940;-39
2023/04/05 00:48:17;;;;;;;;;;;;;;;1.07;90.79;92742.38;5090466;28;19941;-39
2023/04/05 00:50:42;;;;;;;;;;;;;;;1.18;90.47;92744.28;5088529;28;20020;-39
2023/04/05 00:53:08;;;;;;;;;;;;;;;1.11;90.85;92745.56;5089921;28;19934;-39
2023/04/05 00:55:33;;;;;;;;;;;;;;;1.13;90.67;92750.50;5089124;28;20529;-39
2023/04/05 00:57:58;;;;;;;;;;;;;;;1.12;91.28;92747.06;5068491;28;19932;-39
2023/04/05 01:00:24;;;;;;;;;;;;;;;1.24;90.94;92748.44;5069568;28;19934;-39
2023/04/05 01:03:00;;;;;;;;;;;;;;;1.24;89.60;92750.41;5068455;28;19954;-39
2023/04/05 01:05:35;;;;;;;;;;;;;;;1.20;89.94;92744.50;5069565;28;19941;-39
2023/04/05 01:08:12;;;;;;;;;;;;;;;1.06;90.01;92749.06;5068665;28;20037;-39
2023/04/05 01:10:39;;;;;;;;;;;;;;;0.96;90.09;92744.44;5069477;28;19955;-39
2023/04/05 01:13:05;;;;;;;;;;;;;;;1.04;90.86;92754.25;5068205;28;19958;-39
2023/04/05 01:15:31;;;;;;;;;;;;;;;0.93;90.25;92748.91;5069331;28;19938;-39
2023/04/05 01:17:56;;;;;;;;;;;;;;;0.94;90.26;92746.91;5069595;28;19990;-39
2023/04/05 01:20:24;;;;;;;;;;;;;;;0.85;91.03;92750.66;5069456;28;20376;-39
2023/04/05 01:23:10;;;;;;;;;;;;;;;0.80;92.75;92748.75;5067947;28;20054;-39
2023/04/05 01:25:55;;;;;;;;;;;;;;;0.87;91.03;92752.91;5069566;28;19930;-39
2023/04/05 01:28:39;;;;;;;;;;;;;;;0.69;91.81;92754.94;5069040;28;19930;-39
2023/04/05 01:31:10;;;;;;;;;;;;;;;0.86;91.31;92756.84;5069178;28;19928;-39
2023/04/05 01:33:49;;;;;;;;;;;;;;;0.90;90.36;92757.31;5073417;28;20605;-39
2023/04/05 01:36:32;;;;;;;;;;;;;;;0.81;90.92;92760.31;5089382;28;19926;-39
2023/04/05 01:38:58;;;;;;;;;;;;;;;0.69;92.27;92765.09;5088319;28;19929;-39
2023/04/05 01:41:23;;;;;;;;;;;;;;;0.84;91.48;92757.38;5087410;28;20343;-39
2023/04/05 01:43:48;;;;;;;;;;;;;;;0.86;90.72;92757.59;5089397;28;19963;-39
2023/04/05 01:46:14;;;;;;;;;;;;;;;0.72;91.29;92762.09;5089195;28;19936;-39
2023/04/05 01:48:40;;;;;;;;;;;;;;;0.71;91.82;92762.63;5089100;28;19941;-39
2023/04/05 01:51:05;;;;;;;;;;;;;;;0.78;91.16;92756.63;5088975;28;19929;-39
2023/04/05 01:53:30;;;;;;;;;;;;;;;0.81;90.67;92766.50;5089239;28;19928;-39
2023/04/05 01:56:00;;;;;;;;;;;;;;;0.92;90.67;92755.56;5089278;28;19939;-39
2023/04/05 01:58:25;;;;;;;;;;;;;;;0.94;90.63;92761.25;5089147;28;20444;-39
2023/04/05 02:00:52;;;;;;;;;;;;;;;0.92;89.79;92768.41;5088820;28;19968;-39
2023/04/05 02:03:18;;;;;;;;;;;;;;;0.82;90.85;92770.72;5087934;28;19959;-39
2023/04/05 02:05:43;;;;;;;;;;;;;;;0.77;90.92;92776.91;5088856;28;20644;-39
2023/04/05 02:08:08;;;;;;;;;;;;;;;0.80;91.23;92767.75;5089130;28;19986;-39
2023/04/05 02:10:33;;;;;;;;;;;;;;;0.86;91.69;92775.88;5089044;28;19931;-39
2023/04/05 02:12:59;;;;;;;;;;;;;;;0.75;91.94;92769.25;5088737;28;19944;-39
2023/04/05 02:15:24;;;;;;;;;;;;;;;0.81;91.56;92771.19;5088526;28;19916;-39
2023/04/05 02:17:52;;;;;;;;;;;;;;;0.91;91.00;92778.53;5088974;28;19990;-39
2023/04/05 02:20:18;;;;;;;;;;;;;;;0.68;89.95;92777.94;5088589;28;19932;-39
2023/04/05 02:22:44;;;;;;;;;;;;;;;0.38;91.56;92782.50;5088557;28;19994;-39
2023/04/05 02:25:09;;;;;;;;;;;;;;;0.53;92.08;92780.22;5088537;28;19936;-39
2023/04/05 02:27:35;;;;;;;;;;;;;;;0.65;90.85;92783.66;5080654;28;19936;-39
2023/04/05 02:30:00;;;;;;;;;;;;;;;0.53;91.05;92782.19;5068725;28;19938;-39
2023/04/05 02:32:25;;;;;;;;;;;;;;;0.47;92.19;92778.78;5080044;28;20300;-39
2023/04/05 02:34:51;;;;;;;;;;;;;;;0.39;91.56;92781.25;5088759;28;19930;-39
2023/04/05 02:37:17;;;;;;;;;;;;;;;0.34;92.46;92784.00;5088900;28;20047;-39
2023/04/05 02:39:42;;;;;;;;;;;;;;;0.58;91.34;92787.63;5088587;28;19937;-39
2023/04/05 02:42:07;;;;;;;;;;;;;;;0.47;91.79;92778.78;5088604;28;19930;-39
2023/04/05 02:44:33;;;;;;;;;;;;;;;0.35;92.48;92782.75;5088867;28;20045;-39
2023/04/05 02:46:58;;;;;;;;;;;;;;;0.04;93.09;92780.41;5088579;28;19937;-39
2023/04/05 02:49:23;;;;;;;;;;;;;;;0.14;94.26;92784.31;5088859;28;20027;-39
2023/04/05 02:51:48;;;;;;;;;;;;;;;0.18;92.77;92785.53;5088769;28;19935;-39
2023/04/05 02:54:14;;;;;;;;;;;;;;;0.27;92.20;92787.22;5072628;28;19939;-39
2023/04/05 02:56:39;;;;;;;;;;;;;;;0.26;92.69;92783.78;5072575;28;20632;-39
2023/04/05 02:59:04;;;;;;;;;;;;;;;0.32;91.87;92781.81;5072157;28;19973;-39
2023/04/05 03:01:31;;;;;;;;;;;;;;;0.32;92.02;92786.47;5072010;28;19966;-39
2023/04/05 03:03:56;;;;;;;;;;;;;;;0.36;90.66;92776.09;5072190;28;19960;-39
2023/04/05 03:06:21;;;;;;;;;;;;;;;0.21;92.04;92778.38;5072304;28;19930;-39
2023/04/05 03:08:48;;;;;;;;;;;;;;;0.17;92.01;92784.06;5072210;28;19937;-39
2023/04/05 03:11:13;;;;;;;;;;;;;;;0.28;92.04;92791.44;5071814;28;19935;-39
2023/04/05 03:13:38;;;;;;;;;;;;;;;0.29;91.03;92785.50;5071960;28;19941;-39
2023/04/05 03:16:04;;;;;;;;;;;;;;;0.17;93.32;92784.06;5071655;28;19980;-39
2023/04/05 03:18:29;;;;;;;;;;;;;;;0.27;92.73;92787.22;5071726;28;19942;-39
2023/04/05 03:20:58;;;;;;;;;;;;;;;0.29;91.45;92795.63;5071912;28;19972;-39
2023/04/05 03:23:27;;;;;;;;;;;;;;;0.11;94.14;92788.03;5071450;28;20397;-39
2023/04/05 03:26:01;;;;;;;;;;;;;;;0.21;93.99;92791.94;5071725;28;19937;-40
2023/04/05 03:28:27;;;;;;;;;;;;;;;0.13;94.98;92789.00;5071754;28;19940;-39
2023/04/05 03:30:53;;;;;;;;;;;;;;;0.09;94.54;92793.22;5071261;28;20029;-39
2023/04/05 03:33:18;;;;;;;;;;;;;;;0.08;94.28;92789.03;5090606;28;19931;-39
2023/04/05 03:35:44;;;;;;;;;;;;;;;-0.02;93.64;92789.28;5092193;28;19930;-39
2023/04/05 03:38:09;;;;;;;;;;;;;;;0.08;94.07;92789.75;5092179;28;19939;-39
2023/04/05 03:40:34;;;;;;;;;;;;;;;0.02;92.89;92788.31;5092027;28;20612;-39
2023/04/05 03:43:00;;;;;;;;;;;;;;;0.02;94.55;92788.31;5091947;28;19958;-39
2023/04/05 03:45:25;;;;;;;;;;;;;;;-0.16;95.26;92793.03;5091461;28;19935;-39
2023/04/05 03:47:51;;;;;;;;;;;;;;;0.00;95.16;92783.38;5091878;28;19937;-39
2023/04/05 03:50:16;;;;;;;;;;;;;;;0.04;94.88;92796.69;5071969;28;20520;-39
2023/04/05 03:52:41;;;;;;;;;;;;;;;0.06;95.39;92789.53;5071270;28;19962;-39
2023/04/05 03:55:07;;;;;;;;;;;;;;;0.07;94.63;92795.66;5071073;28;19938;-39
2023/04/05 03:57:32;;;;;;;;;;;;;;;0.11;94.26;92794.19;5071117;28;19933;-39
2023/04/05 03:59:58;;;;;;;;;;;;;;;0.20;93.98;92801.31;5071281;28;20013;-39
2023/04/05 04:02:23;;;;;;;;;;;;;;;-0.01;93.92;92806.31;5070843;28;19962;-39
2023/04/05 04:04:48;;;;;;;;;;;;;;;0.11;94.69;92815.91;5070188;28;19950;-39
2023/04/05 04:07:13;;;;;;;;;;;;;;;0.23;93.85;92809.22;5071300;28;19932;-39
2023/04/05 04:09:39;;;;;;;;;;;;;;;0.28;93.22;92813.88;5070749;28;19940;-39
2023/04/05 04:12:04;;;;;;;;;;;;;;;0.12;93.48;92816.63;5071113;28;19938;-39
2023/04/05 04:14:30;;;;;;;;;;;;;;;0.25;93.31;92820.31;5070670;28;19938;-39
2023/04/05 04:16:55;;;;;;;;;;;;;;;0.12;93.02;92827.50;5070909;28;19938;-39
2023/04/05 04:19:20;;;;;;;;;;;;;;;0.20;93.24;92826.50;5070871;28;19932;-39
2023/04/05 04:21:50;;;;;;;;;;;;;;;0.10;93.09;92827.25;5070511;28;19962;-39
2023/04/05 04:24:18;;;;;;;;;;;;;;;0.04;94.16;92830.00;5069783;28;19961;-39
2023/04/05 04:26:44;;;;;;;;;;;;;;;0.13;95.49;92831.69;5070418;28;20467;-39
2023/04/05 04:29:11;;;;;;;;;;;;;;;0.20;93.69;92836.59;5070609;28;19937;-39
2023/04/05 04:31:37;;;;;;;;;;;;;;;0.16;93.86;92827.97;5070142;28;19938;-39
2023/04/05 04:34:04;;;;;;;;;;;;;;;0.28;93.50;92822.03;5078452;28;19933;-39
2023/04/05 04:36:41;;;;;;;;;;;;;;;0.22;93.79;92834.88;5090359;28;19962;-39
2023/04/05 04:39:07;;;;;;;;;;;;;;;0.38;93.24;92836.06;5090749;28;20023;-39
2023/04/05 04:41:35;;;;;;;;;;;;;;;0.41;92.82;92833.09;5090566;28;20492;-39
2023/04/05 04:44:04;;;;;;;;;;;;;;;0.39;92.41;92838.28;5090259;28;19954;-39
2023/04/05 04:46:33;;;;;;;;;;;;;;;0.35;90.93;92837.81;5070975;28;19939;-39
2023/04/05 04:48:58;;;;;;;;;;;;;;;0.38;90.42;92841.50;5069983;28;19987;-39
2023/04/05 04:51:24;;;;;;;;;;;;;;;0.32;90.92;92848.94;5070021;28;19933;-39
2023/04/05 04:53:50;;;;;;;;;;;;;;;0.19;91.04;92854.88;5070204;28;19935;-39
2023/04/05 04:56:15;;;;;;;;;;;;;;;-0.08;93.83;92856.38;5069855;28;20478;-39
2023/04/05 04:58:40;;;;;;;;;;;;;;;0.07;94.14;92850.69;5069798;28;19941;-39
2023/04/05 05:01:07;;;;;;;;;;;;;;;0.18;94.23;92852.66;5069607;28;19972;-39
2023/04/05 05:03:33;;;;;;;;;;;;;;;0.34;93.54;92846.44;5069586;28;19954;-39
2023/04/05 05:05:58;;;;;;;;;;;;;;;0.41;92.49;92843.22;5069863;28;19927;-39
2023/04/05 05:08:24;;;;;;;;;;;;;;;0.33;93.80;92855.81;5069750;28;20318;-39
2023/04/05 05:10:51;;;;;;;;;;;;;;;0.30;93.26;92854.13;5069739;28;19987;-39
2023/04/05 05:13:16;;;;;;;;;;;;;;;0.38;93.95;92846.94;5069818;28;20002;-39
2023/04/05 05:15:41;;;;;;;;;;;;;;;0.55;93.44;92845.66;5069140;28;20463;-40
2023/04/05 05:18:07;;;;;;;;;;;;;;;0.55;92.17;92853.06;5069402;28;19942;-39
2023/04/05 05:20:32;;;;;;;;;;;;;;;0.48;92.61;92853.56;5069363;28;19990;-39
2023/04/05 05:23:00;;;;;;;;;;;;;;;0.58;91.61;92857.50;5069568;28;19930;-39
2023/04/05 05:25:26;;;;;;;;;;;;;;;0.55;91.30;92855.78;5069513;28;19996;-39
2023/04/05 05:27:51;;;;;;;;;;;;;;;0.59;92.91;92864.41;5069077;28;20052;-39
2023/04/05 05:30:17;;;;;;;;;;;;;;;0.60;91.09;92866.63;5069477;28;19942;-37
2023/04/05 05:32:42;;;;;;;;;;;;;;;0.62;92.90;92864.16;5083069;28;19936;-39
2023/04/05 05:35:08;;;;;;;;;;;;;;;0.38;91.69;92863.97;5089532;28;20316;-39
2023/04/05 05:37:33;;;;;;;;;;;;;;;0.36;93.17;92871.13;5079548;28;20028;-39
2023/04/05 05:39:58;;;;;;;;;;;;;;;0.42;92.79;92869.88;5069108;28;19939;-39
2023/04/05 05:42:24;;;;;;;;;;;;;;;0.44;91.85;92872.09;5069215;28;19934;-39
2023/04/05 05:44:49;;;;;;;;;;;;;;;0.29;92.74;92869.66;5069137;28;19954;-38
2023/04/05 05:47:15;;;;;;;;;;;;;;;0.30;93.57;92868.44;5068819;28;20405;-38
2023/04/05 05:49:40;;;;;;;;;;;;;;;0.31;94.77;92869.91;5068722;28;19935;-39
2023/04/05 05:52:06;;;;;;;;;;;;;;;0.35;94.64;92869.63;5068829;28;20032;-39
2023/04/05 05:54:31;;;;;;;;;;;;;;;0.35;94.18;92870.38;5069104;28;19938;-39
2023/04/05 05:56:57;;;;;;;;;;;;;;;0.55;93.51;92866.63;5086862;28;20483;-39
2023/04/05 05:59:23;;;;;;;;;;;;;;;0.59;93.99;92861.69;5089206;28;19941;-39
2023/04/05 06:01:50;;;;;;;;;;;;;;;0.59;94.14;92869.81;5087537;28;20406;-39
2023/04/05 06:04:15;;;;;;;;;;;;;;;0.76;93.73;92860.38;5089073;28;20038;-39
2023/04/05 06:06:42;;;;;;;;;;;;;;;0.95;91.06;92871.44;5076609;28;20023;-39
2023/04/05 06:09:08;;;;;;;;;;;;;;;0.80;91.84;92870.25;5068459;28;20150;-39
2023/04/05 06:11:33;;;;;;;;;;;;;;;0.96;90.58;92869.44;5068627;28;19931;-39
2023/04/05 06:13:58;;;;;;;;;;;;;;;0.78;91.33;92871.50;5068815;28;19931;-39
2023/04/05 06:16:24;;;;;;;;;;;;;;;0.73;90.96;92874.25;5068721;28;20453;-39
2023/04/05 06:18:49;;;;;;;;;;;;;;;0.95;91.36;92884.28;5068824;28;19934;-39
2023/04/05 06:21:15;;;;;;;;;;;;;;;0.96;90.40;92880.31;5068053;28;19939;-39
2023/04/05 06:23:40;;;;;;;;;;;;;;;0.90;90.75;92885.78;5068004;28;19954;-39
2023/04/05 06:26:06;;;;;;;;;;;;;;;0.83;91.32;92893.72;5067889;28;19941;-39
2023/04/05 06:28:31;;;;;;;;;;;;;;;0.88;91.17;92893.69;5068088;28;20027;-38
2023/04/05 06:30:58;;;;;;;;;;;;;;;0.75;91.48;92894.25;5068454;28;20418;-39
2023/04/05 06:33:23;;;;;;;;;;;;;;;0.82;91.00;92889.53;5070805;28;19964;-38
2023/04/05 06:35:48;;;;;;;;;;;;;;;1.04;89.92;92894.88;5081357;28;19939;-39
2023/04/05 06:38:14;;;;;;;;;;;;;;;0.96;92.34;92896.63;5068636;28;19935;-42
2023/04/05 06:40:39;;;;;;;;;;;;;;;1.02;89.89;92902.81;5067623;28;20171;-38
2023/04/05 06:43:05;;;;;;;;;;;;;;;1.06;89.57;92901.28;5068708;28;20044;-38
2023/04/05 06:45:30;;;;;;;;;;;;;;;0.99;88.94;92899.09;5068669;28;19936;-38
2023/04/05 06:47:55;;;;;;;;;;;;;;;0.83;89.82;92910.75;5068322;28;20455;-38
2023/04/05 06:50:21;;;;;;;;;;;;;;;0.80;90.31;92914.50;5051479;28;19963;-38
2023/04/05 06:52:46;;;;;;;;;;;;;;;0.76;89.67;92919.41;5028374;28;20368;-38
2023/04/05 06:55:11;;;;;;;;;;;;;;;0.81;89.95;92926.81;5028335;28;20021;-38
2023/04/05 06:57:36;;;;;;;;;;;;;;;0.92;89.52;92924.06;5028034;28;19955;-38
2023/04/05 07:00:07;;;;;;;;;;;;;;;0.77;88.25;92937.97;5028209;28;19928;-38
2023/04/05 07:02:33;;;;;;;;;;;;;;;0.75;89.35;92939.69;5027745;28;19959;-38
2023/04/05 07:05:03;;;;;;;;;;;;;;;0.68;88.90;92940.94;5027743;28;20407;-38
2023/04/05 07:07:29;;;;;;;;;;;;;;;0.73;89.91;92947.59;5027714;28;19934;-38
2023/04/05 07:09:54;;;;;;;;;;;;;;;0.84;88.95;92941.38;5027803;28;20500;-38
2023/04/05 07:12:19;;;;;;;;;;;;;;;0.77;88.55;92943.38;5027986;28;19986;-38
2023/04/05 07:14:45;;;;;;;;;;;;;;;1.02;87.48;92938.13;5027744;28;19951;-38
2023/04/05 07:17:10;;;;;;;;;;;;;;;0.88;87.45;92941.88;5027956;28;19992;-38
2023/04/05 07:19:35;;;;;;;;;;;;;;;0.97;87.32;92950.50;5028029;28;19957;-38
2023/04/05 07:22:01;;;;;;;;;;;;;;;1.12;86.67;92955.63;5027066;28;19930;-38
2023/04/05 07:24:26;;;;;;;;;;;;;;;1.32;85.13;92949.88;5027247;28;19950;-38
2023/04/05 07:26:51;;;;;;;;;;;;;;;1.22;85.71;92956.81;5027513;28;20425;-38
2023/04/05 07:29:17;;;;;;;;;;;;;;;1.22;85.29;92957.56;5027714;28;19935;-38
2023/04/05 07:31:42;;;;;;;;;;;;;;;1.21;85.04;92961.50;5028552;28;20334;-38
2023/04/05 07:34:07;;;;;;;;;;;;;;;1.17;85.77;92958.31;5028700;28;19979;-38
2023/04/05 07:36:33;;;;;;;;;;;;;;;1.13;85.85;92967.97;5028065;28;19998;-38
2023/04/05 07:38:59;;;;;;;;;;;;;;;1.25;85.81;92959.28;5029330;28;19936;-38
2023/04/05 07:41:25;;;;;;;;;;;;;;;1.32;84.38;92963.47;5031620;28;20037;-38
2023/04/05 07:43:50;;;;;;;;;;;;;;;1.27;84.84;92956.81;5031792;28;19962;-38
2023/04/05 07:46:15;;;;;;;;;;;;;;;1.20;85.87;92962.03;5031788;28;19931;-38
2023/04/05 07:48:41;;;;;;;;;;;;;;;1.43;85.46;92963.41;5031414;28;20341;-39
2023/04/05 07:51:07;;;;;;;;;;;;;;;1.67;84.31;92965.53;5031232;28;19943;-38
2023/04/05 07:53:32;;;;;;;;;;;;;;;1.57;84.69;92969.78;5030698;28;19939;-38
2023/04/05 07:55:58;;;;;;;;;;;;;;;1.57;84.02;92970.53;5040341;28;19936;-38
2023/04/05 07:58:24;;;;;;;;;;;;;;;1.68;84.31;92977.88;5051011;28;19928;-38
2023/04/05 08:00:52;;;;;;;;;;;;;;;1.51;84.02;92972.53;5050997;28;19958;-39
2023/04/05 08:03:17;;;;;;;;;;;;;;;1.57;84.24;92973.25;5050846;28;20714;-38
2023/04/05 08:05:42;;;;;;;;;;;;;;;1.61;84.15;92972.97;5050900;28;19938;-38
2023/04/05 08:08:09;;;;;;;;;;;;;;;1.52;84.21;92974.75;5051103;28;19936;-38
2023/04/05 08:10:38;;;;;;;;;;;;;;;1.73;84.17;92974.41;5050866;28;19940;-38
2023/04/05 08:13:05;;;;;;;;;;;;;;;1.58;84.29;92979.44;5042426;28;19984;-38
2023/04/05 08:15:31;;;;;;;;;;;;;;;1.88;81.87;92980.25;5030950;28;19932;-38
2023/04/05 08:17:57;;;;;;;;;;;;;;;1.92;82.36;92986.16;5030428;28;19929;-38
2023/04/05 08:20:22;;;;;;;;;;;;;;;1.73;83.42;92982.56;5030179;28;19947;-38
2023/04/05 08:22:47;;;;;;;;;;;;;;;1.86;82.60;92988.19;5029673;28;19980;-38
2023/04/05 08:25:12;;;;;;;;;;;;;;;2.15;80.08;92993.69;5030633;28;19938;-38
2023/04/05 08:27:38;;;;;;;;;;;;;;;1.91;80.65;92981.94;5030624;28;19938;-38
2023/04/05 08:30:03;;;;;;;;;;;;;;;2.03;81.47;92994.25;5030610;28;19931;-38
2023/04/05 08:32:29;;;;;;;;;;;;;;;1.92;81.06;92991.59;5029772;28;19935;-38
2023/04/05 08:34:54;;;;;;;;;;;;;;;2.19;80.43;92991.41;5042052;28;19927;-39
2023/04/05 08:37:20;;;;;;;;;;;;;;;2.34;79.11;92998.50;5030711;28;20476;-38
2023/04/05 08:39:45;;;;;;;;;;;;;;;2.51;79.83;92997.16;5030683;28;19931;-39
2023/04/05 08:42:11;;;;;;;;;;;;;;;2.70;77.87;92994.50;5030615;28;19930;-38
2023/04/05 08:44:37;;;;;;;;;;;;;;;2.61;78.57;92997.53;5029272;28;19950;-38
2023/04/05 08:47:03;;;;;;;;;;;;;;;2.69;77.63;92990.28;5028988;28;19968;-39
2023/04/05 08:49:28;;;;;;;;;;;;;;;2.74;76.51;93003.13;5029701;28;19982;-38
2023/04/05 08:51:54;;;;;;;;;;;;;;;2.82;77.59;93004.78;5030408;28;19932;-38
2023/04/05 08:54:20;;;;;;;;;;;;;;;2.83;76.54;93009.00;5030214;28;19943;-39
2023/04/05 08:56:45;;;;;;;;;;;;;;;2.89;76.58;93009.69;5046115;28;19940;-39
2023/04/05 08:59:11;;;;;;;;;;;;;;;3.06;76.10;93014.97;5050283;28;19934;-39
2023/04/05 09:01:37;;;;;;;;;;;;;;;2.73;78.42;93010.56;5065381;28;19989;-39
2023/04/05 09:04:06;;;;;;;;;;;;;;;2.57;78.40;93014.19;5065614;28;20617;-39
2023/04/05 09:06:31;;;;;;;;;;;;;;;2.82;77.46;93015.69;5050299;28;19957;-38
2023/04/05 09:08:57;;;;;;;;;;;;;;;2.71;78.05;93021.25;5050240;28;20013;-39
2023/04/05 09:11:22;;;;;;;;;;;;;;;2.77;77.97;93019.19;5050125;28;20422;-39
2023/04/05 09:13:47;;;;;;;;;;;;;;;2.91;77.70;93020.81;5050104;28;19934;-42
2023/04/05 09:16:16;;;;;;;;;;;;;;;3.00;76.89;93017.78;5050033;28;20371;-39
2023/04/05 09:18:41;;;;;;;;;;;;;;;3.12;77.54;93023.13;5065342;28;20321;-39
2023/04/05 09:21:06;;;;;;;;;;;;;;;2.89;78.01;93017.88;5049865;28;20020;-39
2023/04/05 09:23:35;;;;;;;;;;;;;;;2.88;78.56;93021.13;5049579;28;20695;-39
2023/04/05 09:26:02;;;;;;;;;;;;;;;3.00;77.21;93027.94;5049680;28;19943;-39
2023/04/05 09:28:41;;;;;;;;;;;;;;;3.11;76.75;93027.84;5049679;28;19943;-39
2023/04/05 09:31:06;;;;;;;;;;;;;;;2.93;77.43;93023.78;5028958;28;19935;-38
2023/04/05 09:33:31;;;;;;;;;;;;;;;2.94;76.12;93028.00;5033044;28;19942;-39
2023/04/05 09:35:57;;;;;;;;;;;;;;;3.14;77.24;93026.78;5061233;28;20554;-39
2023/04/05 09:38:40;;;;;;;;;;;;;;;3.42;75.76;93023.81;5029427;28;19940;-39
2023/04/05 09:41:07;;;;;;;;;;;;;;;3.51;74.28;93009.81;5029570;28;20366;-39
2023/04/05 09:43:39;;;;;;;;;;;;;;;3.63;74.66;93017.34;5028976;28;19921;-38
2023/04/05 09:46:04;;;;;;;;;;;;;;;3.83;73.01;93021.56;5029099;28;19963;-39
2023/04/05 09:48:48;;;;;;;;;;;;;;;3.94;73.62;93020.69;5029058;28;19935;-38
2023/04/05 09:51:14;;;;;;;;;;;;;;;3.99;72.54;93017.13;5029159;28;19987;-38
2023/04/05 09:53:58;;;;;;;;;;;;;;;3.86;73.21;93017.81;5028896;28;19939;-39
2023/04/05 09:56:24;;;;;;;;;;;;;;;3.91;71.32;93021.72;5042245;28;20039;-39
2023/04/05 09:58:50;;;;;;;;;;;;;;;3.94;71.50;93015.22;5048765;28;20037;-39
2023/04/05 10:01:15;;;;;;;;;;;;;;;3.95;73.29;93011.22;5048133;28;19961;-38
2023/04/05 10:03:47;;;;;;;;;;;;;;;3.88;71.86;93012.56;5048671;28;19945;-39
2023/04/05 10:06:13;;;;;;;;;;;;;;;3.68;72.16;93011.06;5049096;28;19930;-39
2023/04/05 10:08:38;;;;;;;;;;;;;;;3.87;72.73;93018.53;5064402;28;20030;-39
2023/04/05 10:11:03;;;;;;;;;;;;;;;3.96;71.75;93018.19;5060201;28;19970;-38
2023/04/05 10:13:28;;;;;;;;;;;;;;;3.89;72.67;93010.56;5028790;28;19937;-39
2023/04/05 10:15:54;;;;;;;;;;;;;;;4.29;70.28;93014.97;5029127;28;19937;-39
2023/04/05 10:18:25;;;;;;;;;;;;;;;4.41;68.78;93017.06;5028859;28;19939;-39
2023/04/05 10:20:50;;;;;;;;;;;;;;;4.36;69.81;93006.94;5060404;28;20424;-38
2023/04/05 10:23:24;;;;;;;;;;;;;;;4.46;69.73;93018.25;5061122;28;20004;-38
2023/04/05 10:25:53;;;;;;;;;;;;;;;4.68;69.18;93006.22;5029192;28;19954;-39
2023/04/05 10:28:34;;;;;;;;;;;;;;;4.73;67.67;93016.31;5028965;28;19930;-39
2023/04/05 10:31:02;;;;;;;;;;;;;;;4.97;66.94;93008.72;5028075;28;19954;-39
2023/04/05 10:33:33;;;;;;;;;;;;;;;5.03;68.06;93008.59;5015235;28;20039;-39
2023/04/05 10:36:17;;;;;;;;;;;;;;;5.11;66.24;93007.47;5048486;28;20052;-39
2023/04/05 10:39:00;;;;;;;;;;;;;;;5.12;67.70;93008.19;5048402;28;19929;-39
2023/04/05 10:41:25;;;;;;;;;;;;;;;5.58;67.61;93015.09;5048377;28;19974;-39
2023/04/05 10:43:51;;;;;;;;;;;;;;;5.85;66.86;93011.81;5041201;28;20394;-39
2023/04/05 10:46:22;;;;;;;;;;;;;;;6.22;63.45;93010.06;5027016;28;19932;-39
2023/04/05 10:48:57;;;;;;;;;;;;;;;6.09;64.83;93014.31;5028744;28;19913;-39
2023/04/05 10:51:23;;;;;;;;;;;;;;;5.99;63.51;93009.81;5027987;28;19948;-39
2023/04/05 10:53:48;;;;;;;;;;;;;;;5.80;64.82;93009.19;5028525;28;19917;-39
2023/04/05 10:56:13;;;;;;;;;;;;;;;5.78;66.07;93006.94;5071954;28;19962;-39
2023/04/05 10:58:41;;;;;;;;;;;;;;;5.91;65.27;93006.25;5063878;28;19965;-39
2023/04/05 11:01:06;;;;;;;;;;;;;;;6.00;66.39;93003.78;5047969;28;19963;-39
2023/04/05 11:03:43;;;;;;;;;;;;;;;6.25;64.26;93003.53;5047964;28;19958;-39
2023/04/05 11:06:21;;;;;;;;;;;;;;;6.56;65.20;93011.53;5044956;28;20477;-39
2023/04/05 11:08:47;;;;;;;;;;;;;;;6.86;62.23;93003.59;5027954;28;19937;-39
2023/04/05 11:11:13;;;;;;;;;;;;;;;6.76;62.21;93012.81;5027885;28;19995;-39
2023/04/05 11:13:48;;;;;;;;;;;;;;;6.55;60.99;93009.34;5029057;28;19942;-39
2023/04/05 11:16:14;;;;;;;;;;;;;;;6.94;60.55;93005.69;5029113;28;20514;-39
2023/04/05 11:18:43;;;;;;;;;;;;;;;6.50;62.63;93008.19;5031462;28;19926;-39
2023/04/05 11:21:08;;;;;;;;;;;;;;;6.56;61.75;93011.53;5031583;28;19930;-39
2023/04/05 11:23:38;;;;;;;;;;;;;;;6.44;61.65;93012.31;5062705;28;20740;-39
2023/04/05 11:26:04;;;;;;;;;;;;;;;6.45;60.95;93003.59;5029525;28;20470;-39
2023/04/05 11:28:38;;;;;;;;;;;;;;;5.90;63.62;93013.72;5031625;28;19940;-39
2023/04/05 11:31:13;;;;;;;;;;;;;;;5.78;64.20;93017.19;5031261;28;19937;-39
2023/04/05 11:33:38;;;;;;;;;;;;;;;5.97;62.89;93013.09;5031404;28;19935;-39
2023/04/05 11:36:04;;;;;;;;;;;;;;;6.38;62.30;93006.22;5031452;28;19929;-39
2023/04/05 11:38:29;;;;;;;;;;;;;;;6.41;62.25;93011.38;5031212;28;19937;-39
2023/04/05 11:41:10;;;;;;;;;;;;;;;6.36;61.10;93006.03;5031644;28;19979;-39
2023/04/05 11:43:37;;;;;;;;;;;;;;;5.94;60.82;93016.88;5031677;28;19954;-39
2023/04/05 11:46:03;;;;;;;;;;;;;;;6.43;62.04;93013.59;5030181;28;20377;-39
2023/04/05 11:48:29;;;;;;;;;;;;;;;6.90;61.61;93014.25;5031868;28;19929;-39
2023/04/05 11:50:54;;;;;;;;;;;;;;;7.25;60.77;93002.66;5031607;28;20628;-39
2023/04/05 11:53:20;;;;;;;;;;;;;;;7.23;58.75;93009.97;5030138;28;20383;-39
2023/04/05 11:55:49;;;;;;;;;;;;;;;7.48;58.05;93016.53;5039244;28;19929;-39
2023/04/05 11:58:15;;;;;;;;;;;;;;;7.05;59.47;93014.38;5048182;28;19936;-39
2023/04/05 12:00:41;;;;;;;;;;;;;;;7.33;60.91;93019.16;5031022;28;20002;-39
2023/04/05 12:03:10;;;;;;;;;;;;;;;7.83;57.46;93015.09;5030878;28;19980;-39
2023/04/05 12:05:45;;;;;;;;;;;;;;;7.76;58.47;93024.03;5031448;28;19930;-39
2023/04/05 12:08:10;;;;;;;;;;;;;;;7.76;57.50;93021.28;5031287;28;19995;-39
2023/04/05 12:10:36;;;;;;;;;;;;;;;7.25;59.29;93013.63;5031063;28;20421;-39
2023/04/05 12:13:01;;;;;;;;;;;;;;;7.73;57.36;93019.63;5031319;28;19928;-39
2023/04/05 12:15:26;;;;;;;;;;;;;;;8.01;56.45;93020.31;5063086;28;20322;-39
2023/04/05 12:17:53;;;;;;;;;;;;;;;8.13;55.21;93020.75;5030835;28;19979;-39
2023/04/05 12:20:19;;;;;;;;;;;;;;;8.29;55.45;93022.31;5030889;28;19944;-39
2023/04/05 12:22:47;;;;;;;;;;;;;;;8.46;54.24;93022.56;5062562;28;20490;-39
2023/04/05 12:25:13;;;;;;;;;;;;;;;8.60;57.03;93018.38;5044972;28;19946;-39
2023/04/05 12:27:38;;;;;;;;;;;;;;;8.56;55.33;93018.00;5030753;28;20710;-39
2023/04/05 12:30:05;;;;;;;;;;;;;;;8.91;52.77;93014.44;5045926;28;19949;-39
2023/04/05 12:32:45;;;;;;;;;;;;;;;8.51;53.48;93013.41;5042374;28;19941;-39
2023/04/05 12:35:14;;;;;;;;;;;;;;;8.19;55.50;93002.06;5050293;28;19932;-39
2023/04/05 12:37:40;;;;;;;;;;;;;;;8.17;54.74;93016.38;5050210;28;20122;-39
2023/04/05 12:40:05;;;;;;;;;;;;;;;8.17;54.22;93012.88;5050254;28;19979;-39
2023/04/05 12:42:37;;;;;;;;;;;;;;;7.72;55.83;93009.91;5050442;28;19929;-39
2023/04/05 12:45:05;;;;;;;;;;;;;;;8.00;54.38;93010.63;5050329;28;20005;-39
2023/04/05 12:47:37;;;;;;;;;;;;;;;7.61;55.84;93005.44;5050079;28;19933;-39
2023/04/05 12:50:12;;;;;;;;;;;;;;;7.47;54.41;93006.84;5050234;28;19964;-39
2023/04/05 12:52:37;;;;;;;;;;;;;;;7.20;57.12;93009.00;5050302;28;19957;-39
2023/04/05 12:55:03;;;;;;;;;;;;;;;7.01;57.27;93014.00;5032696;28;19931;-39
2023/04/05 12:57:31;;;;;;;;;;;;;;;6.74;58.25;93018.13;5049928;28;19946;-39